createdAt,value
2022-07-27T00:01:53.385Z,1.67
2022-07-27T00:04:23.318Z,1.92
2022-07-27T00:06:53.339Z,1.85
2022-07-27T00:09:25.640Z,1.75
2022-07-27T00:11:55.274Z,1.90
2022-07-27T00:14:24.937Z,1.70
2022-07-27T00:16:54.723Z,1.80
2022-07-27T00:19:24.471Z,2.17
2022-07-27T00:21:54.548Z,1.80
2022-07-27T00:24:26.979Z,2.15
2022-07-27T00:26:56.752Z,2.35
2022-07-27T00:29:26.484Z,1.80
2022-07-27T00:31:56.581Z,1.90
2022-07-27T00:34:28.265Z,1.80
2022-07-27T00:36:57.924Z,1.83
2022-07-27T00:39:30.138Z,2.28
2022-07-27T00:41:59.856Z,1.40
2022-07-27T00:44:30.527Z,1.80
2022-07-27T00:47:01.191Z,2.20
2022-07-27T00:49:31.040Z,1.90
2022-07-27T00:52:00.799Z,2.00
2022-07-27T00:54:33.114Z,2.45
2022-07-27T00:57:03.088Z,1.90
2022-07-27T00:59:33.072Z,2.13
2022-07-27T01:02:02.969Z,1.90
2022-07-27T01:04:32.992Z,1.83
2022-07-27T01:07:03.151Z,1.50
2022-07-27T01:09:48.010Z,2.08
2022-07-27T01:12:20.596Z,1.70
2022-07-27T01:14:50.834Z,1.60
2022-07-27T01:17:21.001Z,2.05
2022-07-27T01:19:50.967Z,1.80
2022-07-27T01:22:23.308Z,1.50
2022-07-27T01:24:53.172Z,1.88
2022-07-27T01:27:22.949Z,1.70
2022-07-27T01:29:52.688Z,1.92
2022-07-27T01:32:22.363Z,1.80
2022-07-27T01:34:51.996Z,2.10
2022-07-27T01:37:24.324Z,1.90
2022-07-27T01:39:53.923Z,2.17
2022-07-27T01:42:23.550Z,1.95
2022-07-27T01:44:54.131Z,2.10
2022-07-27T01:47:23.757Z,1.85
2022-07-27T01:49:53.428Z,2.10
2022-07-27T01:52:25.742Z,2.00
2022-07-27T01:54:55.307Z,1.97
2022-07-27T01:57:24.949Z,1.90
2022-07-27T01:59:55.359Z,2.00
2022-07-27T02:02:25.011Z,1.90
2022-07-27T02:04:54.844Z,1.80
2022-07-27T02:07:27.116Z,2.20
2022-07-27T02:09:56.803Z,2.20
2022-07-27T02:12:35.704Z,2.05
2022-07-27T02:15:07.380Z,1.90
2022-07-27T02:17:38.116Z,1.63
2022-07-27T02:20:10.487Z,1.83
2022-07-27T02:22:42.753Z,2.00
2022-07-27T02:25:13.523Z,2.10
2022-07-27T02:27:44.759Z,2.17
2022-07-27T02:30:17.783Z,2.40
2022-07-27T02:32:47.740Z,2.33
2022-07-27T02:35:19.587Z,2.50
2022-07-27T02:37:52.861Z,2.83
2022-07-27T02:40:22.737Z,2.90
2022-07-27T02:42:52.453Z,2.50
2022-07-27T02:45:22.295Z,3.30
2022-07-27T02:47:52.189Z,3.00
2022-07-27T02:50:22.336Z,3.15
2022-07-27T02:52:54.601Z,2.77
2022-07-27T02:55:24.403Z,3.10
2022-07-27T02:57:54.077Z,3.00
2022-07-27T03:00:24.888Z,2.75
2022-07-27T03:02:54.704Z,2.92
2022-07-27T03:05:24.419Z,2.90
2022-07-27T03:07:56.678Z,2.97
2022-07-27T03:10:26.420Z,3.40
2022-07-27T03:12:56.007Z,3.67
2022-07-27T03:15:26.157Z,3.40
2022-07-27T03:17:55.909Z,3.28
2022-07-27T03:20:25.559Z,3.40
2022-07-27T03:22:57.848Z,3.00
2022-07-27T03:25:27.836Z,3.20
2022-07-27T03:28:03.484Z,3.10
2022-07-27T03:30:33.880Z,3.17
2022-07-27T03:33:03.602Z,3.58
2022-07-27T03:35:33.266Z,3.20
2022-07-27T03:38:05.901Z,2.80
2022-07-27T03:40:35.509Z,3.10
2022-07-27T03:43:05.164Z,3.10
2022-07-27T03:45:34.851Z,3.08
2022-07-27T03:48:04.623Z,2.70
2022-07-27T03:50:34.271Z,3.28
2022-07-27T03:53:06.663Z,3.08
2022-07-27T03:55:36.296Z,3.03
2022-07-27T03:58:05.949Z,2.90
2022-07-27T04:00:35.633Z,3.05
2022-07-27T04:03:05.381Z,3.50
2022-07-27T04:05:35.095Z,3.50
2022-07-27T04:08:07.882Z,2.80
2022-07-27T04:10:37.540Z,3.50
2022-07-27T04:13:07.468Z,3.17
2022-07-27T04:15:38.056Z,3.00
2022-07-27T04:18:07.890Z,3.00
2022-07-27T04:20:37.861Z,3.10
2022-07-27T04:23:10.056Z,3.05
2022-07-27T04:25:39.688Z,2.88
2022-07-27T04:28:09.623Z,3.08
2022-07-27T04:30:39.503Z,2.58
2022-07-27T04:33:09.204Z,2.78
2022-07-27T04:35:38.849Z,2.85
2022-07-27T04:38:11.167Z,2.50
2022-07-27T04:40:40.836Z,2.80
2022-07-27T04:43:10.460Z,3.30
2022-07-27T04:45:40.419Z,3.10
2022-07-27T04:48:10.844Z,3.40
2022-07-27T04:50:43.783Z,3.50
2022-07-27T04:53:16.870Z,3.60
2022-07-27T04:55:47.623Z,3.30
2022-07-27T04:58:17.939Z,3.20
2022-07-27T05:00:47.710Z,3.40
2022-07-27T05:03:17.535Z,3.30
2022-07-27T05:05:50.099Z,3.88
2022-07-27T05:08:22.855Z,3.40
2022-07-27T05:10:52.644Z,3.60
2022-07-27T05:13:22.319Z,3.80
2022-07-27T05:15:54.479Z,3.58
2022-07-27T05:18:25.828Z,3.50
2022-07-27T05:20:55.917Z,3.72
2022-07-27T05:23:28.193Z,3.80
2022-07-27T05:25:57.858Z,3.22
2022-07-27T05:28:27.710Z,4.00
2022-07-27T05:30:57.325Z,3.90
2022-07-27T05:33:26.983Z,3.80
2022-07-27T05:35:57.999Z,3.63
2022-07-27T05:38:30.279Z,3.97
2022-07-27T05:40:59.963Z,3.80
2022-07-27T05:43:29.730Z,3.88
2022-07-27T05:45:59.407Z,4.10
2022-07-27T05:48:29.274Z,3.80
2022-07-27T05:50:59.019Z,3.90
2022-07-27T05:53:31.215Z,3.90
2022-07-27T05:56:00.991Z,4.05
2022-07-27T05:58:31.001Z,3.50
2022-07-27T06:01:00.831Z,4.60
2022-07-27T06:03:31.199Z,4.47
2022-07-27T06:06:13.390Z,3.85
2022-07-27T06:08:45.672Z,4.50
2022-07-27T06:11:15.335Z,4.53
2022-07-27T06:13:45.058Z,4.60
2022-07-27T06:16:14.945Z,4.45
2022-07-27T06:18:44.735Z,4.72
2022-07-27T06:21:14.323Z,3.90
2022-07-27T06:23:48.492Z,4.10
2022-07-27T06:26:18.305Z,4.10
2022-07-27T06:28:48.083Z,3.83
2022-07-27T06:31:17.910Z,3.53
2022-07-27T06:33:50.406Z,3.60
2022-07-27T06:36:22.142Z,3.72
2022-07-27T06:38:54.370Z,3.40
2022-07-27T06:41:24.208Z,4.13
2022-07-27T06:43:53.970Z,3.10
2022-07-27T06:46:23.612Z,2.55
2022-07-27T06:48:53.342Z,2.50
2022-07-27T06:51:23.103Z,2.28
2022-07-27T06:53:55.814Z,1.70
2022-07-27T06:56:25.548Z,1.90
2022-07-27T06:58:55.206Z,2.13
2022-07-27T07:01:24.969Z,2.30
2022-07-27T07:03:56.283Z,2.30
2022-07-27T07:06:26.324Z,2.60
2022-07-27T07:08:58.563Z,2.55
2022-07-27T07:11:28.233Z,2.40
2022-07-27T07:13:57.893Z,2.20
2022-07-27T07:16:27.651Z,2.42
2022-07-27T07:18:57.315Z,1.70
2022-07-27T07:21:27.022Z,2.00
2022-07-27T07:23:59.303Z,2.20
2022-07-27T07:26:28.936Z,1.90
2022-07-27T07:28:58.693Z,1.92
2022-07-27T07:31:28.718Z,2.30
2022-07-27T07:33:58.450Z,1.75
2022-07-27T07:36:28.427Z,2.23
2022-07-27T07:39:00.965Z,1.70
2022-07-27T07:41:30.692Z,1.60
2022-07-27T07:44:00.351Z,1.52
2022-07-27T07:46:30.077Z,1.73
2022-07-27T07:48:59.860Z,1.70
2022-07-27T07:51:29.584Z,1.60
2022-07-27T07:54:01.978Z,1.40
2022-07-27T07:56:31.677Z,1.60
2022-07-27T07:59:04.851Z,1.27
2022-07-27T08:01:34.714Z,1.33
2022-07-27T08:04:04.483Z,1.30
2022-07-27T08:06:34.120Z,2.00
2022-07-27T08:09:06.542Z,1.80
2022-07-27T08:11:36.192Z,1.60
2022-07-27T08:14:06.141Z,1.48
2022-07-27T08:16:35.813Z,1.60
2022-07-27T08:19:05.482Z,1.60
2022-07-27T08:21:39.025Z,1.50
2022-07-27T08:24:11.544Z,1.70
2022-07-27T08:26:41.299Z,1.80
2022-07-27T08:29:13.790Z,1.88
2022-07-27T08:31:52.736Z,2.00
2022-07-27T08:34:23.177Z,2.17
2022-07-27T08:36:52.797Z,2.05
2022-07-27T08:40:19.826Z,2.40
2022-07-27T08:42:14.854Z,2.60
2022-07-27T08:44:44.801Z,2.17
2022-07-27T08:47:16.940Z,2.45
2022-07-27T08:49:49.756Z,2.53
2022-07-27T08:52:20.121Z,2.30
2022-07-27T08:54:52.722Z,1.63
2022-07-27T08:57:22.334Z,2.00
2022-07-27T08:59:52.023Z,2.70
2022-07-27T09:02:23.782Z,2.65
2022-07-27T09:04:53.812Z,2.37
2022-07-27T09:07:32.002Z,2.38
2022-07-27T09:10:04.683Z,2.15
2022-07-27T09:12:35.652Z,2.40
2022-07-27T09:15:11.006Z,2.03
2022-07-27T09:17:49.954Z,1.70
2022-07-27T09:20:22.206Z,1.57
2022-07-27T09:22:53.724Z,1.65
2022-07-27T09:26:00.301Z,1.75
2022-07-27T09:28:16.454Z,1.58
2022-07-27T09:30:46.671Z,1.70
2022-07-27T09:33:19.237Z,2.20
2022-07-27T09:36:00.779Z,2.03
2022-07-27T09:38:30.472Z,2.00
2022-07-27T09:41:05.288Z,1.93
2022-07-27T09:46:39.482Z,1.70
2022-07-27T09:49:10.283Z,2.10
2022-07-27T09:52:03.347Z,2.20
2022-07-27T09:54:47.423Z,2.00
2022-07-27T09:57:20.631Z,2.20
2022-07-27T09:59:50.438Z,2.40
2022-07-27T10:02:20.257Z,2.63
2022-07-27T10:04:50.412Z,2.20
2022-07-27T10:07:22.108Z,2.40
2022-07-27T10:09:51.920Z,2.60
2022-07-27T10:12:24.189Z,2.30
2022-07-27T10:14:53.798Z,2.22
2022-07-27T10:17:23.662Z,2.92
2022-07-27T10:19:53.527Z,2.30
2022-07-27T10:22:53.013Z,2.63
2022-07-27T10:25:22.889Z,2.50
2022-07-27T10:28:15.827Z,1.90
2022-07-27T10:30:49.321Z,2.00
2022-07-27T10:33:45.592Z,2.00
2022-07-27T10:36:19.492Z,2.20
2022-07-27T10:38:52.236Z,2.20
2022-07-27T10:41:28.669Z,2.40
2022-07-27T10:44:34.601Z,2.45
2022-07-27T10:47:06.529Z,2.60
2022-07-27T10:49:40.614Z,2.50
2022-07-27T10:52:42.588Z,2.60
2022-07-27T10:55:44.537Z,3.10
2022-07-27T10:58:44.179Z,2.53
2022-07-27T11:01:17.837Z,2.38
2022-07-27T11:03:57.282Z,1.95
2022-07-27T11:06:41.929Z,1.70
2022-07-27T11:10:02.391Z,1.92
2022-07-27T11:12:13.809Z,1.70
2022-07-27T11:14:48.893Z,1.70
2022-07-27T11:20:14.062Z,1.48
2022-07-27T11:25:34.384Z,1.42
2022-07-27T11:28:09.023Z,1.40
2022-07-27T11:30:38.744Z,1.80
2022-07-27T11:33:11.046Z,1.60
2022-07-27T11:35:40.765Z,1.40
2022-07-27T11:38:10.433Z,1.85
2022-07-27T11:40:58.078Z,1.20
2022-07-27T11:43:38.741Z,1.50
2022-07-27T11:46:19.787Z,1.10
2022-07-27T11:49:10.209Z,1.15
2022-07-27T11:51:43.143Z,1.13
2022-07-27T11:54:14.255Z,1.10
2022-07-27T11:56:46.203Z,1.00
2022-07-27T11:59:18.498Z,1.20
2022-07-27T12:01:51.079Z,1.23
2022-07-27T12:04:28.136Z,1.30
2022-07-27T12:07:02.027Z,1.20
2022-07-27T12:09:36.739Z,1.13
2022-07-27T12:12:16.686Z,1.20
2022-07-27T12:14:48.960Z,1.30
2022-07-27T12:17:21.231Z,1.20
2022-07-27T12:20:01.790Z,1.30
2022-07-27T12:22:34.339Z,1.50
2022-07-27T12:25:16.717Z,1.50
2022-07-27T12:27:57.046Z,1.60
2022-07-27T12:30:34.509Z,1.23
2022-07-27T12:33:05.374Z,1.40
2022-07-27T12:35:46.483Z,1.30
2022-07-27T12:38:16.874Z,1.20
2022-07-27T12:40:48.398Z,1.70
2022-07-27T12:43:20.137Z,1.77
2022-07-27T12:45:51.554Z,1.48
2022-07-27T12:48:22.889Z,1.70
2022-07-27T12:51:01.831Z,1.70
2022-07-27T12:53:32.585Z,1.80
2022-07-27T12:56:04.614Z,1.67
2022-07-27T12:58:34.729Z,1.60
2022-07-27T13:01:04.677Z,1.73
2022-07-27T13:03:36.884Z,1.50
2022-07-27T13:06:12.973Z,2.10
2022-07-27T13:08:42.972Z,2.30
2022-07-27T13:11:13.717Z,1.97
2022-07-27T13:13:43.591Z,1.70
2022-07-27T13:16:13.291Z,1.98
2022-07-27T13:18:43.004Z,1.77
2022-07-27T13:21:15.325Z,1.40
2022-07-27T13:23:45.001Z,1.50
2022-07-27T13:26:14.671Z,1.40
2022-07-27T13:28:44.324Z,1.30
2022-07-27T13:31:14.072Z,1.80
2022-07-27T13:33:43.767Z,1.80
2022-07-27T13:36:16.195Z,2.00
2022-07-27T13:38:46.031Z,1.80
2022-07-27T13:41:16.049Z,1.80
2022-07-27T13:43:45.753Z,2.10
2022-07-27T13:46:15.525Z,1.70
2022-07-27T13:48:45.286Z,2.30
2022-07-27T13:51:17.668Z,1.92
2022-07-27T13:53:47.341Z,2.00
2022-07-27T13:56:17.019Z,1.80
2022-07-27T13:58:53.574Z,1.58
2022-07-27T14:01:23.281Z,1.40
2022-07-27T14:03:53.866Z,1.40
2022-07-27T14:06:26.140Z,1.27
2022-07-27T14:08:56.022Z,1.50
2022-07-27T14:11:25.646Z,1.73
2022-07-27T14:13:55.292Z,1.37
2022-07-27T14:16:25.126Z,1.90
2022-07-27T14:18:54.865Z,1.70
2022-07-27T14:21:27.164Z,2.07
2022-07-27T14:23:56.828Z,1.83
2022-07-27T14:26:27.033Z,1.70
2022-07-27T14:28:57.771Z,1.80
2022-07-27T14:31:27.439Z,1.80
2022-07-27T14:33:57.127Z,1.70
2022-07-27T14:36:29.381Z,2.00
2022-07-27T14:38:59.113Z,1.50
2022-07-27T14:41:28.856Z,1.90
2022-07-27T14:43:58.486Z,1.80
2022-07-27T14:46:28.439Z,1.50
2022-07-27T14:49:06.746Z,1.50
2022-07-27T14:51:39.511Z,1.30
2022-07-27T14:54:09.224Z,1.20
2022-07-27T14:56:39.133Z,1.65
2022-07-27T14:59:08.863Z,1.70
2022-07-27T15:01:39.746Z,1.57
2022-07-27T15:04:09.654Z,1.50
2022-07-27T15:06:41.924Z,1.70
2022-07-27T15:09:11.878Z,1.50
2022-07-27T15:11:41.780Z,1.60
2022-07-27T15:14:13.311Z,1.60
2022-07-27T15:16:43.028Z,1.50
2022-07-27T15:19:13.044Z,1.67
2022-07-27T15:21:47.092Z,1.60
2022-07-27T15:24:16.808Z,1.50
2022-07-27T15:26:46.787Z,1.75
2022-07-27T15:29:16.952Z,1.60
2022-07-27T15:31:46.887Z,1.80
2022-07-27T15:34:17.900Z,1.60
2022-07-27T15:36:52.362Z,1.70
2022-07-27T15:39:23.109Z,1.38
2022-07-27T15:41:52.957Z,1.48
2022-07-27T15:44:23.341Z,1.40
2022-07-27T15:46:53.022Z,1.50
2022-07-27T15:49:22.978Z,1.40
2022-07-27T15:51:55.680Z,1.90
2022-07-27T15:54:27.996Z,1.50
2022-07-27T15:56:59.784Z,1.40
2022-07-27T15:59:29.395Z,1.50
2022-07-27T16:01:59.036Z,1.73
2022-07-27T16:04:28.872Z,1.70
2022-07-27T16:07:01.121Z,1.70
2022-07-27T16:09:30.756Z,1.50
2022-07-27T16:12:00.425Z,1.38
2022-07-27T16:14:30.079Z,1.58
2022-07-27T16:17:02.503Z,1.77
2022-07-27T16:19:32.161Z,1.63
2022-07-27T16:22:04.473Z,2.00
2022-07-27T16:24:38.130Z,1.80
2022-07-27T16:27:08.313Z,1.65
2022-07-27T16:29:38.436Z,2.10
2022-07-27T16:32:08.237Z,1.42
2022-07-27T16:34:37.904Z,1.80
2022-07-27T16:37:10.276Z,1.80
2022-07-27T16:39:40.037Z,1.40
2022-07-27T16:42:09.994Z,1.50
2022-07-27T16:44:41.315Z,1.90
2022-07-27T16:47:11.006Z,1.80
2022-07-27T16:49:40.713Z,1.67
2022-07-27T16:52:13.175Z,1.77
2022-07-27T16:54:46.382Z,1.80
2022-07-27T16:57:16.038Z,1.80
2022-07-27T16:59:45.706Z,1.60
2022-07-27T17:02:15.464Z,1.40
2022-07-27T17:04:45.205Z,2.00
2022-07-27T17:07:17.599Z,1.75
2022-07-27T17:09:47.300Z,1.58
2022-07-27T17:12:17.255Z,2.10
2022-07-27T17:14:47.372Z,1.90
2022-07-27T17:17:17.484Z,1.50
2022-07-27T17:19:47.245Z,1.70
2022-07-27T17:22:19.554Z,1.75
2022-07-27T17:24:49.175Z,1.52
2022-07-27T17:27:18.910Z,1.73
2022-07-27T17:29:48.614Z,1.40
2022-07-27T17:32:18.353Z,2.10
2022-07-27T17:34:48.245Z,1.30
2022-07-27T17:37:20.566Z,1.80
2022-07-27T17:39:50.360Z,1.70
2022-07-27T17:42:20.533Z,1.60
2022-07-27T17:44:50.165Z,1.80
2022-07-27T17:47:19.858Z,1.35
2022-07-27T17:49:49.610Z,1.50
2022-07-27T17:52:22.418Z,1.80
2022-07-27T17:54:52.107Z,1.63
2022-07-27T17:57:21.726Z,2.20
2022-07-27T17:59:51.377Z,1.60
2022-07-27T18:02:21.263Z,1.80
2022-07-27T18:04:50.940Z,1.58
2022-07-27T18:07:23.218Z,2.05
2022-07-27T18:09:52.885Z,1.90
2022-07-27T18:12:24.142Z,1.50
2022-07-27T18:15:06.314Z,1.67
2022-07-27T18:17:39.134Z,1.80
2022-07-27T18:20:10.825Z,1.50
2022-07-27T18:22:43.101Z,1.40
2022-07-27T18:25:13.599Z,1.80
2022-07-27T18:27:44.894Z,1.70
2022-07-27T18:30:15.918Z,1.27
2022-07-27T18:32:45.761Z,1.20
2022-07-27T18:35:15.954Z,1.20
2022-07-27T18:37:48.202Z,1.50
2022-07-27T18:40:17.932Z,1.40
2022-07-27T18:42:48.121Z,1.40
2022-07-27T18:45:17.858Z,1.70
2022-07-27T18:47:49.440Z,1.30
2022-07-27T18:50:19.704Z,1.67
2022-07-27T18:52:52.037Z,1.65
2022-07-27T18:55:22.973Z,1.60
2022-07-27T18:57:54.370Z,1.40
2022-07-27T19:00:25.046Z,1.38
2022-07-27T19:02:56.623Z,1.33
2022-07-27T19:05:40.499Z,1.60
2022-07-27T19:08:14.565Z,1.40
2022-07-27T19:10:44.640Z,1.50
2022-07-27T19:13:14.917Z,1.45
2022-07-27T19:15:45.291Z,1.20
2022-07-27T19:18:15.136Z,1.10
2022-07-27T19:20:45.128Z,1.17
2022-07-27T19:23:17.566Z,1.30
2022-07-27T19:25:48.014Z,1.40
2022-07-27T19:28:19.566Z,1.50
2022-07-27T19:30:49.985Z,1.23
2022-07-27T19:33:21.049Z,1.70
2022-07-27T19:35:52.525Z,1.40
2022-07-27T19:38:25.315Z,1.40
2022-07-27T19:40:55.830Z,1.20
2022-07-27T19:43:25.786Z,1.30
2022-07-27T19:45:55.760Z,1.40
2022-07-27T19:48:27.851Z,1.23
2022-07-27T19:51:04.744Z,1.50
2022-07-27T19:53:41.096Z,1.25
2022-07-27T19:56:14.096Z,1.27
2022-07-27T19:58:44.033Z,1.60
2022-07-27T20:01:14.701Z,1.40
2022-07-27T20:03:52.147Z,1.40
2022-07-27T20:06:25.253Z,1.30
2022-07-27T20:08:59.822Z,1.48
2022-07-27T20:11:31.122Z,1.50
2022-07-27T20:14:02.511Z,1.80
2022-07-27T20:16:34.339Z,1.80
2022-07-27T20:19:04.202Z,1.40
2022-07-27T20:21:36.896Z,1.70
2022-07-27T20:24:09.881Z,1.83
2022-07-27T20:26:39.925Z,1.50
2022-07-27T20:29:10.088Z,2.10
2022-07-27T20:31:41.992Z,2.27
2022-07-27T20:34:11.770Z,2.20
2022-07-27T20:36:41.560Z,2.10
2022-07-27T20:39:17.301Z,2.30
2022-07-27T20:41:47.721Z,1.70
2022-07-27T20:44:17.519Z,1.80
2022-07-27T20:46:47.342Z,2.08
2022-07-27T20:49:18.027Z,1.80
2022-07-27T20:51:48.216Z,1.80
2022-07-27T20:54:29.108Z,2.00
2022-07-27T20:56:59.541Z,1.70
2022-07-27T20:59:29.379Z,2.07
2022-07-27T21:01:59.312Z,1.70
2022-07-27T21:04:29.368Z,1.90
2022-07-27T21:06:59.194Z,1.70
2022-07-27T21:09:31.706Z,1.90
2022-07-27T21:12:01.879Z,1.80
2022-07-27T21:14:31.638Z,1.80
2022-07-27T21:17:01.623Z,2.10
2022-07-27T21:19:31.519Z,2.80
2022-07-27T21:22:01.320Z,2.70
2022-07-27T21:24:33.977Z,1.85
2022-07-27T21:27:07.102Z,2.00
2022-07-27T21:29:38.652Z,1.75
2022-07-27T21:32:09.132Z,1.70
2022-07-27T21:34:38.911Z,1.70
2022-07-27T21:37:08.728Z,1.90
2022-07-27T21:39:41.079Z,2.05
2022-07-27T21:42:10.977Z,2.25
2022-07-27T21:44:41.004Z,1.60
2022-07-27T21:47:14.077Z,2.25
2022-07-27T21:49:44.418Z,2.00
2022-07-27T21:52:14.227Z,1.90
2022-07-27T21:54:46.602Z,2.35
2022-07-27T21:57:16.428Z,1.75
2022-07-27T21:59:46.180Z,2.15
2022-07-27T22:02:16.001Z,2.00
2022-07-27T22:04:45.814Z,1.95
2022-07-27T22:07:16.593Z,2.00
2022-07-27T22:09:52.093Z,2.22
2022-07-27T22:12:21.922Z,2.70
2022-07-27T22:14:51.891Z,2.10
2022-07-27T22:17:21.736Z,2.00
2022-07-27T22:19:51.677Z,2.00
2022-07-27T22:22:21.601Z,2.20
2022-07-27T22:24:54.023Z,2.40
2022-07-27T22:27:23.908Z,2.15
2022-07-27T22:29:53.707Z,2.55
2022-07-27T22:32:23.631Z,2.33
2022-07-27T22:34:53.484Z,2.20
2022-07-27T22:37:23.993Z,2.20
2022-07-27T22:39:56.331Z,2.30
2022-07-27T22:42:26.357Z,2.30
2022-07-27T22:44:56.152Z,2.38
2022-07-27T22:47:26.029Z,2.00
2022-07-27T22:49:55.927Z,2.20
2022-07-27T22:52:25.810Z,2.60
2022-07-27T22:54:58.214Z,2.22
2022-07-27T22:57:28.055Z,2.20
2022-07-27T22:59:57.842Z,2.40
2022-07-27T23:02:28.129Z,1.90
2022-07-27T23:04:59.033Z,2.13
2022-07-27T23:07:28.941Z,1.98
2022-07-27T23:10:01.342Z,2.30
2022-07-27T23:12:31.304Z,2.00
2022-07-27T23:15:01.198Z,2.60
2022-07-27T23:17:31.443Z,2.10
2022-07-27T23:20:01.263Z,2.00
2022-07-27T23:22:31.137Z,2.17
2022-07-27T23:25:03.810Z,2.10
2022-07-27T23:27:37.048Z,2.35
2022-07-27T23:30:07.243Z,2.00
2022-07-27T23:32:37.154Z,1.83
2022-07-27T23:35:07.628Z,2.08
2022-07-27T23:37:37.584Z,1.75
2022-07-27T23:40:11.302Z,1.95
2022-07-27T23:42:41.227Z,1.80
2022-07-27T23:45:11.580Z,1.70
2022-07-27T23:47:41.513Z,1.90
2022-07-27T23:50:12.463Z,1.70
2022-07-27T23:52:42.134Z,1.40
2022-07-27T23:55:14.530Z,2.10
2022-07-27T23:57:44.182Z,1.63
